createdAt,value
2018-10-01T00:00:11.246Z,14.74
2018-10-01T00:02:39.676Z,14.67
2018-10-01T00:05:08.538Z,14.68
2018-10-01T00:07:37.386Z,14.67
2018-10-01T00:10:06.298Z,14.68
2018-10-01T00:12:35.106Z,14.66
2018-10-01T00:15:04.066Z,14.68
2018-10-01T00:17:32.883Z,14.71
2018-10-01T00:20:06.843Z,14.69
2018-10-01T00:22:40.753Z,14.70
2018-10-01T00:25:09.614Z,14.73
2018-10-01T00:27:38.438Z,14.71
2018-10-01T00:30:07.258Z,14.68
2018-10-01T00:32:36.250Z,14.70
2018-10-01T00:35:05.151Z,14.68
2018-10-01T00:37:34.009Z,14.66
2018-10-01T00:40:03.129Z,14.70
2018-10-01T00:42:31.942Z,14.65
2018-10-01T00:45:00.748Z,14.64
2018-10-01T00:47:29.601Z,14.62
2018-10-01T00:49:58.390Z,14.61
2018-10-01T00:52:27.217Z,14.59
2018-10-01T00:54:56.069Z,14.59
2018-10-01T00:57:24.926Z,14.61
2018-10-01T00:59:53.806Z,14.57
2018-10-01T01:02:22.597Z,14.57
2018-10-01T01:04:51.404Z,14.58
2018-10-01T01:07:20.257Z,14.58
2018-10-01T01:09:49.106Z,14.55
2018-10-01T01:12:17.926Z,14.59
2018-10-01T01:14:46.742Z,14.62
2018-10-01T01:17:15.558Z,14.68
2018-10-01T01:19:44.677Z,14.69
2018-10-01T01:22:13.473Z,14.73
2018-10-01T01:24:42.315Z,14.69
2018-10-01T01:27:11.188Z,14.68
2018-10-01T01:29:40.019Z,14.76
2018-10-01T01:32:08.814Z,14.70
2018-10-01T01:34:37.659Z,14.74
2018-10-01T01:37:06.487Z,14.69
2018-10-01T01:39:36.634Z,14.73
2018-10-01T01:42:05.435Z,14.71
2018-10-01T01:44:34.342Z,14.73
2018-10-01T01:47:03.208Z,14.73
2018-10-01T01:49:32.030Z,14.78
2018-10-01T01:52:00.945Z,14.71
2018-10-01T01:54:29.766Z,14.73
2018-10-01T01:56:58.586Z,14.72
2018-10-01T01:59:27.418Z,14.75
2018-10-01T02:01:56.221Z,14.75
2018-10-01T02:04:25.074Z,14.75
2018-10-01T02:06:54.061Z,14.73
2018-10-01T02:09:22.862Z,14.76
2018-10-01T02:11:51.802Z,14.77
2018-10-01T02:14:20.803Z,14.78
2018-10-01T02:16:49.599Z,14.80
2018-10-01T02:19:18.518Z,14.83
2018-10-01T02:21:47.328Z,14.80
2018-10-01T02:24:16.134Z,14.85
2018-10-01T02:26:45.002Z,14.87
2018-10-01T02:29:13.811Z,14.90
2018-10-01T02:31:42.610Z,14.96
2018-10-01T02:34:11.470Z,14.92
2018-10-01T02:36:40.252Z,14.93
2018-10-01T02:39:11.631Z,14.97
2018-10-01T02:41:40.675Z,14.95
2018-10-01T02:44:09.497Z,14.95
2018-10-01T02:46:38.533Z,14.99
2018-10-01T02:49:07.559Z,14.97
2018-10-01T02:51:41.591Z,14.94
2018-10-01T02:54:15.450Z,14.98
2018-10-01T02:56:44.262Z,15.03
2018-10-01T02:59:13.103Z,15.08
2018-10-01T03:01:41.919Z,15.09
2018-10-01T03:04:10.790Z,15.11
2018-10-01T03:06:39.734Z,15.08
2018-10-01T03:09:11.948Z,15.06
2018-10-01T03:11:40.915Z,15.09
2018-10-01T03:14:10.430Z,15.11
2018-10-01T03:16:39.527Z,15.09
2018-10-01T03:19:08.914Z,15.04
2018-10-01T03:21:38.801Z,15.07
2018-10-01T03:24:07.784Z,15.06
2018-10-01T03:26:36.623Z,15.11
2018-10-01T03:29:05.479Z,15.08
2018-10-01T03:31:34.505Z,15.04
2018-10-01T03:34:04.554Z,15.11
2018-10-01T03:36:33.375Z,15.07
2018-10-01T03:39:02.162Z,15.10
2018-10-01T03:41:32.254Z,15.09
2018-10-01T03:44:01.054Z,15.11
2018-10-01T03:46:29.841Z,15.17
2018-10-01T03:49:00.166Z,15.10
2018-10-01T03:51:28.973Z,15.14
2018-10-01T03:53:57.761Z,15.16
2018-10-01T03:56:26.563Z,15.17
2018-10-01T03:58:55.446Z,15.16
2018-10-01T04:01:24.252Z,15.18
2018-10-01T04:03:53.043Z,15.19
2018-10-01T04:06:23.143Z,15.19
2018-10-01T04:08:52.022Z,15.24
2018-10-01T04:11:20.839Z,15.25
2018-10-01T04:13:49.660Z,15.27
2018-10-01T04:16:19.926Z,15.23
2018-10-01T04:18:48.729Z,15.28
2018-10-01T04:21:18.754Z,15.29
2018-10-01T04:23:47.549Z,15.27
2018-10-01T04:26:17.710Z,15.22
2018-10-01T04:28:46.616Z,15.23
2018-10-01T04:31:15.410Z,15.22
2018-10-01T04:33:44.618Z,15.23
2018-10-01T04:36:13.777Z,15.22
2018-10-01T04:38:42.554Z,15.26
2018-10-01T04:41:11.362Z,15.25
2018-10-01T04:43:41.653Z,15.28
2018-10-01T04:46:10.435Z,15.25
2018-10-01T04:48:39.250Z,15.25
2018-10-01T04:51:08.187Z,15.26
2018-10-01T04:53:36.979Z,15.30
2018-10-01T04:56:05.813Z,15.34
2018-10-01T04:58:34.865Z,15.31
2018-10-01T05:01:03.593Z,15.32
2018-10-01T05:03:32.414Z,15.37
2018-10-01T05:06:01.244Z,15.40
2018-10-01T05:08:30.101Z,15.40
2018-10-01T05:10:59.378Z,15.41
2018-10-01T05:13:28.170Z,15.43
2018-10-01T05:15:57.010Z,15.45
2018-10-01T05:18:25.805Z,15.50
2018-10-01T05:20:54.654Z,15.53
2018-10-01T05:23:24.850Z,15.52
2018-10-01T05:25:53.661Z,15.55
2018-10-01T05:28:22.710Z,15.58
2018-10-01T05:30:51.650Z,15.62
2018-10-01T05:33:20.434Z,15.60
2018-10-01T05:35:49.230Z,15.58
2018-10-01T05:38:18.254Z,15.59
2018-10-01T05:40:47.094Z,15.60
2018-10-01T05:43:15.906Z,15.61
2018-10-01T05:45:44.685Z,15.55
2018-10-01T05:48:13.589Z,15.57
2018-10-01T05:50:42.458Z,15.54
2018-10-01T05:53:11.266Z,15.57
2018-10-01T05:55:40.196Z,15.55
2018-10-01T05:58:09.068Z,15.56
2018-10-01T06:00:37.865Z,15.60
2018-10-01T06:03:06.801Z,15.61
2018-10-01T06:05:35.597Z,15.65
2018-10-01T06:08:05.770Z,15.65
2018-10-01T06:10:34.558Z,15.67
2018-10-01T06:13:03.342Z,15.71
2018-10-01T06:15:32.166Z,15.77
2018-10-01T06:18:01.246Z,15.68
2018-10-01T06:20:31.458Z,15.73
2018-10-01T06:23:00.357Z,15.70
2018-10-01T06:25:29.151Z,15.66
2018-10-01T06:27:59.274Z,15.67
2018-10-01T06:30:28.078Z,15.71
2018-10-01T06:32:56.909Z,15.70
2018-10-01T06:35:27.043Z,15.66
2018-10-01T06:37:55.884Z,15.67
2018-10-01T06:40:24.706Z,15.69
2018-10-01T06:42:53.555Z,15.66
2018-10-01T06:45:22.449Z,15.65
2018-10-01T06:47:51.278Z,15.63
2018-10-01T06:50:20.143Z,15.65
2018-10-01T06:52:48.990Z,15.69
2018-10-01T06:55:17.820Z,15.64
2018-10-01T06:57:46.746Z,15.70
2018-10-01T07:00:15.546Z,15.69
2018-10-01T07:02:44.336Z,15.70
2018-10-01T07:05:13.205Z,15.63
2018-10-01T07:07:42.032Z,15.63
2018-10-01T07:10:12.214Z,15.68
2018-10-01T07:12:41.005Z,15.66
2018-10-01T07:15:09.839Z,15.67
2018-10-01T07:17:39.871Z,15.68
2018-10-01T07:20:08.866Z,15.66
2018-10-01T07:22:37.730Z,15.69
2018-10-01T07:25:06.671Z,15.68
2018-10-01T07:27:35.715Z,15.68
2018-10-01T07:30:04.588Z,15.70
2018-10-01T07:32:33.465Z,15.74
2018-10-01T07:35:02.418Z,15.71
2018-10-01T07:37:31.424Z,15.72
2018-10-01T07:40:00.446Z,15.72
2018-10-01T07:42:29.226Z,15.73
2018-10-01T07:44:58.080Z,15.77
2018-10-01T07:47:27.043Z,15.76
2018-10-01T07:49:55.915Z,15.82
2018-10-01T07:52:24.750Z,15.80
2018-10-01T07:54:53.575Z,15.82
2018-10-01T07:57:22.708Z,15.78
2018-10-01T07:59:51.547Z,15.77
2018-10-01T08:02:21.842Z,15.78
2018-10-01T08:04:50.614Z,15.85
2018-10-01T08:07:19.464Z,15.84
2018-10-01T08:09:49.694Z,15.80
2018-10-01T08:12:19.940Z,15.79
2018-10-01T08:14:48.893Z,15.80
2018-10-01T08:17:17.825Z,15.73
2018-10-01T08:19:46.840Z,15.78
2018-10-01T08:22:15.686Z,15.85
2018-10-01T08:24:44.848Z,15.85
2018-10-01T08:27:13.958Z,15.86
2018-10-01T08:29:42.885Z,15.86
2018-10-01T08:32:11.679Z,15.87
2018-10-01T08:34:40.598Z,15.88
2018-10-01T08:37:09.451Z,15.87
2018-10-01T08:39:38.250Z,15.87
2018-10-01T08:42:07.191Z,15.90
2018-10-01T08:44:37.365Z,15.90
2018-10-01T08:47:06.244Z,15.96
2018-10-01T08:51:41.936Z,16.03
2018-10-01T08:54:15.227Z,16.09
2018-10-01T08:56:44.133Z,16.16
2018-10-01T08:59:14.287Z,16.17
2018-10-01T09:01:43.104Z,16.21
2018-10-01T09:04:12.107Z,16.25
2018-10-01T09:06:40.994Z,16.29
2018-10-01T09:09:10.914Z,16.37
2018-10-01T09:11:39.811Z,16.46
2018-10-01T09:14:08.804Z,16.51
2018-10-01T09:16:37.706Z,16.52
2018-10-01T09:19:06.681Z,16.44
2018-10-01T09:21:35.669Z,16.37
2018-10-01T09:24:04.574Z,16.30
2018-10-01T09:26:33.599Z,16.32
2018-10-01T09:29:02.505Z,16.29
2018-10-01T09:31:31.498Z,16.26
2018-10-01T09:34:00.656Z,16.21
2018-10-01T09:36:29.614Z,16.22
2018-10-01T09:38:58.459Z,16.18
2018-10-01T09:41:27.485Z,16.18
2018-10-01T09:43:56.438Z,16.19
2018-10-01T09:46:25.348Z,16.09
2018-10-01T09:48:54.335Z,16.07
2018-10-01T09:51:23.293Z,16.06
2018-10-01T09:53:52.380Z,16.11
2018-10-01T09:56:21.224Z,16.10
2018-10-01T09:58:50.046Z,16.11
2018-10-01T10:01:18.855Z,16.08
2018-10-01T10:03:49.092Z,16.15
2018-10-01T10:06:18.118Z,16.17
2018-10-01T10:08:46.984Z,16.09
2018-10-01T10:11:22.663Z,16.07
2018-10-01T10:14:01.689Z,16.01
2018-10-01T10:16:39.064Z,16.01
2018-10-01T10:19:19.143Z,16.04
2018-10-01T10:22:05.155Z,16.03
2018-10-01T10:24:38.283Z,16.03
2018-10-01T10:27:18.096Z,16.03
2018-10-01T10:29:57.872Z,16.06
2018-10-01T10:32:26.845Z,16.11
2018-10-01T10:34:55.823Z,16.15
2018-10-01T10:37:24.745Z,16.23
2018-10-01T10:39:53.632Z,16.24
2018-10-01T10:42:22.460Z,16.22
2018-10-01T10:44:52.656Z,16.17
2018-10-01T10:47:21.487Z,16.20
2018-10-01T10:49:50.404Z,16.20
2018-10-01T10:52:20.966Z,16.16
2018-10-01T10:54:49.955Z,16.08
2018-10-01T10:57:18.841Z,16.07
2018-10-01T10:59:47.743Z,16.05
2018-10-01T11:02:16.812Z,16.08
2018-10-01T11:04:46.036Z,16.09
2018-10-01T11:07:15.083Z,16.10
2018-10-01T11:09:43.917Z,16.05
2018-10-01T11:12:12.793Z,16.07
2018-10-01T11:14:41.855Z,16.08
2018-10-01T11:17:10.735Z,16.08
2018-10-01T11:19:39.703Z,16.16
2018-10-01T11:22:08.606Z,16.13
2018-10-01T11:24:37.427Z,16.05
2018-10-01T11:27:06.321Z,16.08
2018-10-01T11:29:37.652Z,16.18
2018-10-01T11:32:07.040Z,16.11
2018-10-01T11:34:35.996Z,16.10
2018-10-01T11:37:04.933Z,16.18
2018-10-01T11:39:33.875Z,16.20
2018-10-01T11:42:02.793Z,16.22
2018-10-01T11:44:31.742Z,16.31
2018-10-01T11:47:00.639Z,16.31
2018-10-01T11:49:29.570Z,16.32
2018-10-01T11:51:59.755Z,16.26
2018-10-01T11:54:28.798Z,16.25
2018-10-01T11:56:57.662Z,16.20
2018-10-01T11:59:26.674Z,16.18
2018-10-01T12:01:55.566Z,16.20
2018-10-01T12:04:24.479Z,16.13
2018-10-01T12:06:53.458Z,16.15
2018-10-01T12:09:22.389Z,16.22
2018-10-01T12:11:51.254Z,16.27
2018-10-01T12:14:21.396Z,16.15
2018-10-01T12:16:50.347Z,16.15
2018-10-01T12:19:19.259Z,16.17
2018-10-01T12:21:48.338Z,16.18
2018-10-01T12:24:17.136Z,16.35
2018-10-01T12:26:46.062Z,16.43
2018-10-01T12:29:14.959Z,16.37
2018-10-01T12:31:45.422Z,16.33
2018-10-01T12:34:14.503Z,16.56
2018-10-01T12:36:43.448Z,16.48
2018-10-01T12:39:13.661Z,16.52
2018-10-01T12:41:42.505Z,16.60
2018-10-01T12:44:11.452Z,16.80
2018-10-01T12:46:41.722Z,17.04
2018-10-01T12:49:10.710Z,17.15
2018-10-01T12:51:39.650Z,17.33
2018-10-01T12:54:10.069Z,17.33
2018-10-01T12:56:38.902Z,17.20
2018-10-01T12:59:07.857Z,17.29
2018-10-01T13:01:36.768Z,17.32
2018-10-01T13:04:05.688Z,17.39
2018-10-01T13:06:34.575Z,17.56
2018-10-01T13:09:03.742Z,17.82
2018-10-01T13:11:32.671Z,18.18
2018-10-01T13:14:01.512Z,18.31
2018-10-01T13:16:30.407Z,18.40
2018-10-01T13:18:59.267Z,18.56
2018-10-01T13:21:29.463Z,18.47
2018-10-01T13:23:58.421Z,18.45
2018-10-01T13:26:27.348Z,18.17
2018-10-01T13:28:56.744Z,17.95
2018-10-01T13:31:25.786Z,18.09
2018-10-01T13:33:54.767Z,18.14
2018-10-01T13:36:24.111Z,18.05
2018-10-01T13:38:53.097Z,18.01
2018-10-01T13:41:23.331Z,17.50
2018-10-01T13:43:52.227Z,17.57
2018-10-01T13:46:21.163Z,17.35
2018-10-01T13:48:50.107Z,17.05
2018-10-01T13:51:18.953Z,16.79
2018-10-01T13:53:47.802Z,16.71
2018-10-01T13:56:16.778Z,16.82
2018-10-01T13:58:45.747Z,16.95
2018-10-01T14:01:14.705Z,16.98
2018-10-01T14:03:43.673Z,17.15
2018-10-01T14:06:13.913Z,17.26
2018-10-01T14:08:42.888Z,17.29
2018-10-01T14:11:13.128Z,17.41
2018-10-01T14:13:42.125Z,17.32
2018-10-01T14:16:11.075Z,17.42
2018-10-01T14:18:39.950Z,17.33
2018-10-01T14:21:08.900Z,17.39
2018-10-01T14:23:37.818Z,17.19
2018-10-01T14:26:06.686Z,17.10
2018-10-01T14:28:37.229Z,17.09
2018-10-01T14:31:06.209Z,17.08
2018-10-01T14:33:35.088Z,16.92
2018-10-01T14:36:04.089Z,17.07
2018-10-01T14:38:32.987Z,17.09
2018-10-01T14:41:01.919Z,17.26
2018-10-01T14:43:30.901Z,17.24
2018-10-01T14:46:01.106Z,17.21
2018-10-01T14:48:30.090Z,17.19
2018-10-01T14:51:00.395Z,17.16
2018-10-01T14:53:30.860Z,17.11
2018-10-01T14:55:59.766Z,17.20
2018-10-01T14:58:28.694Z,17.15
2018-10-01T15:00:59.029Z,17.09
2018-10-01T15:03:27.908Z,17.09
2018-10-01T15:05:56.873Z,17.09
2018-10-01T15:08:28.492Z,16.94
2018-10-01T15:10:57.515Z,16.90
2018-10-01T15:13:26.335Z,16.98
2018-10-01T15:15:55.224Z,16.94
2018-10-01T15:18:24.162Z,16.97
2018-10-01T15:20:54.624Z,16.97
2018-10-01T15:23:23.602Z,16.96
2018-10-01T15:25:52.531Z,16.91
2018-10-01T15:28:21.402Z,16.86
2018-10-01T15:30:50.385Z,16.74
2018-10-01T15:33:19.346Z,16.80
2018-10-01T15:35:49.589Z,16.79
2018-10-01T15:38:18.550Z,16.78
2018-10-01T15:40:47.483Z,16.80
2018-10-01T15:43:16.435Z,16.73
2018-10-01T15:45:45.370Z,16.71
2018-10-01T15:48:14.300Z,16.68
2018-10-01T15:50:43.231Z,16.67
2018-10-01T15:53:13.561Z,16.59
2018-10-01T15:55:42.561Z,16.61
2018-10-01T15:58:11.532Z,16.59
2018-10-01T16:00:40.503Z,16.61
2018-10-01T16:03:10.794Z,16.56
2018-10-01T16:05:39.712Z,16.48
2018-10-01T16:08:08.659Z,16.47
2018-10-01T16:10:38.918Z,16.43
2018-10-01T16:13:07.812Z,16.45
2018-10-01T16:15:36.737Z,16.45
2018-10-01T16:18:07.089Z,16.45
2018-10-01T16:20:36.083Z,16.46
2018-10-01T16:23:05.015Z,16.44
2018-10-01T16:25:35.365Z,16.44
2018-10-01T16:28:04.343Z,16.49
2018-10-01T16:30:33.232Z,16.46
2018-10-01T16:33:02.169Z,16.46
2018-10-01T16:35:30.999Z,16.41
2018-10-01T16:37:59.915Z,16.45
2018-10-01T16:40:28.911Z,16.45
2018-10-01T16:42:58.739Z,16.37
2018-10-01T16:45:30.669Z,16.41
2018-10-01T16:47:59.742Z,16.43
2018-10-01T16:50:28.696Z,16.44
2018-10-01T16:52:57.708Z,16.45
2018-10-01T16:55:26.723Z,16.46
2018-10-01T16:57:55.741Z,16.48
2018-10-01T17:00:24.659Z,16.42
2018-10-01T17:02:53.621Z,16.35
2018-10-01T17:05:22.660Z,16.34
2018-10-01T17:07:51.580Z,16.29
2018-10-01T17:10:20.500Z,16.30
2018-10-01T17:12:49.456Z,16.26
2018-10-01T17:15:18.456Z,16.28
2018-10-01T17:17:47.396Z,16.18
2018-10-01T17:20:16.407Z,16.16
2018-10-01T17:22:45.387Z,16.18
2018-10-01T17:25:14.269Z,16.14
2018-10-01T17:27:43.257Z,16.19
2018-10-01T17:30:12.152Z,16.13
2018-10-01T17:32:41.047Z,16.21
2018-10-01T17:35:10.087Z,16.18
2018-10-01T17:37:39.023Z,16.13
2018-10-01T17:40:07.951Z,16.16
2018-10-01T17:42:36.960Z,16.19
2018-10-01T17:45:06.188Z,16.20
2018-10-01T17:47:35.125Z,16.24
2018-10-01T17:50:05.342Z,16.22
2018-10-01T17:52:34.288Z,16.28
2018-10-01T17:55:03.252Z,16.23
2018-10-01T17:57:32.210Z,16.25
2018-10-01T18:00:01.516Z,16.22
2018-10-01T18:02:30.418Z,16.22
2018-10-01T18:04:59.391Z,16.23
2018-10-01T18:07:28.400Z,16.25
2018-10-01T18:09:57.370Z,16.25
2018-10-01T18:12:26.333Z,16.24
2018-10-01T18:14:55.355Z,16.11
2018-10-01T18:17:24.248Z,16.07
2018-10-01T18:19:53.189Z,16.09
2018-10-01T18:22:22.132Z,16.05
2018-10-01T18:24:51.118Z,16.01
2018-10-01T18:27:20.094Z,16.01
2018-10-01T18:29:48.984Z,15.98
2018-10-01T18:32:19.211Z,15.98
2018-10-01T18:34:48.142Z,15.93
2018-10-01T18:37:17.081Z,15.95
2018-10-01T18:39:47.446Z,15.93
2018-10-01T18:42:17.695Z,15.92
2018-10-01T18:44:46.716Z,15.92
2018-10-01T18:47:15.700Z,15.94
2018-10-01T18:49:44.904Z,15.93
2018-10-01T18:52:15.221Z,15.91
2018-10-01T18:54:44.120Z,15.98
2018-10-01T18:57:14.252Z,15.94
2018-10-01T18:59:44.553Z,15.95
2018-10-01T19:02:13.440Z,16.03
2018-10-01T19:04:42.426Z,16.10
2018-10-01T19:07:12.667Z,16.13
2018-10-01T19:09:41.673Z,16.15
2018-10-01T19:12:10.710Z,16.19
2018-10-01T19:14:39.642Z,16.20
2018-10-01T19:17:08.553Z,16.19
2018-10-01T19:19:37.567Z,16.23
2018-10-01T19:22:07.876Z,16.25
2018-10-01T19:24:36.854Z,16.22
2018-10-01T19:27:05.789Z,16.07
2018-10-01T19:29:34.827Z,16.04
2018-10-01T19:32:03.758Z,15.98
2018-10-01T19:34:32.688Z,16.03
2018-10-01T19:37:01.666Z,15.98
2018-10-01T19:39:30.591Z,15.95
2018-10-01T19:41:59.435Z,15.89
2018-10-01T19:44:29.650Z,15.89
2018-10-01T19:46:58.569Z,15.76
2018-10-01T19:49:29.680Z,15.67
2018-10-01T19:51:59.915Z,15.64
2018-10-01T19:54:28.878Z,15.65
2018-10-01T19:56:58.089Z,15.60
2018-10-01T19:59:28.648Z,15.65
2018-10-01T20:01:58.829Z,15.58
2018-10-01T20:04:27.765Z,15.51
2018-10-01T20:06:56.764Z,15.55
2018-10-01T20:09:25.683Z,15.51
2018-10-01T20:11:55.948Z,15.48
2018-10-01T20:14:24.807Z,15.48
2018-10-01T20:16:53.720Z,15.43
2018-10-01T20:19:22.711Z,15.50
2018-10-01T20:21:51.751Z,15.45
2018-10-01T20:24:21.097Z,15.46
2018-10-01T20:26:50.165Z,15.49
2018-10-01T20:29:19.195Z,15.42
2018-10-01T20:31:47.819Z,15.42
2018-10-01T20:34:16.849Z,15.48
2018-10-01T20:36:45.782Z,15.45
2018-10-01T20:39:14.707Z,15.44
2018-10-01T20:41:44.871Z,15.46
2018-10-01T20:44:13.899Z,15.58
2018-10-01T20:46:44.135Z,15.68
2018-10-01T20:49:12.979Z,15.64
2018-10-01T20:51:41.851Z,15.60
2018-10-01T20:54:10.840Z,15.55
2018-10-01T20:56:39.719Z,15.65
2018-10-01T20:59:15.551Z,15.73
2018-10-01T21:01:44.432Z,15.74
2018-10-01T21:04:13.404Z,15.75
2018-10-01T21:06:42.394Z,15.73
2018-10-01T21:09:12.647Z,15.76
2018-10-01T21:11:41.981Z,15.81
2018-10-01T21:14:11.178Z,15.73
2018-10-01T21:16:40.107Z,15.74
2018-10-01T21:19:09.063Z,15.76
2018-10-01T21:21:38.057Z,15.85
2018-10-01T21:24:07.002Z,15.92
2018-10-01T21:26:36.004Z,15.93
2018-10-01T21:29:05.050Z,15.88
2018-10-01T21:31:34.040Z,15.94
2018-10-01T21:34:03.092Z,15.96
2018-10-01T21:36:32.084Z,15.85
2018-10-01T21:39:01.113Z,15.93
2018-10-01T21:41:30.310Z,15.80
2018-10-01T21:43:59.281Z,15.72
2018-10-01T21:46:28.309Z,15.67
2018-10-01T21:48:57.272Z,15.57
2018-10-01T21:51:26.262Z,15.67
2018-10-01T21:53:55.278Z,15.70
2018-10-01T21:56:24.262Z,15.64
2018-10-01T21:58:53.244Z,15.76
2018-10-01T22:01:27.547Z,15.74
2018-10-01T22:03:56.677Z,15.81
2018-10-01T22:06:25.634Z,15.74
2018-10-01T22:08:54.582Z,15.70
2018-10-01T22:11:23.580Z,15.64
2018-10-01T22:13:52.529Z,15.44
2018-10-01T22:16:22.788Z,15.57
2018-10-01T22:18:51.749Z,15.42
2018-10-01T22:21:20.815Z,15.45
2018-10-01T22:23:49.809Z,15.54
2018-10-01T22:26:18.748Z,15.48
2018-10-01T22:28:47.851Z,15.39
2018-10-01T22:31:16.828Z,15.38
2018-10-01T22:33:45.842Z,15.43
2018-10-01T22:36:14.883Z,15.50
2018-10-01T22:38:43.836Z,15.45
2018-10-01T22:41:12.818Z,15.60
2018-10-01T22:43:43.067Z,15.59
2018-10-01T22:46:12.069Z,15.56
2018-10-01T22:48:41.080Z,15.52
2018-10-01T22:51:11.564Z,15.62
2018-10-01T22:53:40.491Z,15.66
2018-10-01T22:56:09.427Z,15.68
2018-10-01T22:58:38.307Z,15.65
2018-10-01T23:01:07.299Z,15.61
2018-10-01T23:03:36.287Z,15.64
2018-10-01T23:06:05.170Z,15.64
2018-10-01T23:08:34.211Z,15.64
2018-10-01T23:11:03.181Z,15.67
2018-10-01T23:13:32.027Z,15.61
2018-10-01T23:16:00.955Z,15.63
2018-10-01T23:18:29.968Z,15.70
2018-10-01T23:20:58.851Z,15.70
2018-10-01T23:23:27.831Z,15.68
2018-10-01T23:25:56.784Z,15.68
2018-10-01T23:28:25.707Z,15.67
2018-10-01T23:30:54.651Z,15.67
2018-10-01T23:33:23.594Z,15.64
2018-10-01T23:35:52.507Z,15.58
2018-10-01T23:38:21.434Z,15.54
2018-10-01T23:40:50.362Z,15.48
2018-10-01T23:43:19.297Z,15.48
2018-10-01T23:45:48.155Z,15.47
2018-10-01T23:48:17.172Z,15.61
2018-10-01T23:50:45.985Z,15.69
2018-10-01T23:53:14.934Z,15.81
2018-10-01T23:55:43.922Z,15.65
2018-10-01T23:58:12.850Z,15.46
